createdAt,value
2019-05-09T00:02:03.980Z,35.50
2019-05-09T00:04:34.121Z,34.60
2019-05-09T00:07:03.628Z,37.30
2019-05-09T00:09:35.241Z,40.00
2019-05-09T00:12:03.947Z,35.23
2019-05-09T00:14:34.255Z,42.57
2019-05-09T00:17:03.814Z,45.10
2019-05-09T00:19:33.359Z,52.50
2019-05-09T00:22:03.255Z,49.43
2019-05-09T00:24:33.223Z,52.03
2019-05-09T00:27:05.045Z,47.17
2019-05-09T00:29:40.768Z,46.87
2019-05-09T00:32:27.271Z,47.17
2019-05-09T00:35:09.583Z,45.13
2019-05-09T00:37:58.003Z,43.20
2019-05-09T00:40:29.503Z,37.67
2019-05-09T00:42:58.166Z,36.30
2019-05-09T00:45:28.507Z,29.60
2019-05-09T00:47:57.224Z,30.57
2019-05-09T00:50:25.884Z,28.47
2019-05-09T00:52:54.383Z,30.77
2019-05-09T00:55:23.853Z,31.70
2019-05-09T00:57:53.429Z,30.90
2019-05-09T01:00:24.279Z,33.77
2019-05-09T01:02:56.132Z,30.13
2019-05-09T01:05:24.780Z,26.23
2019-05-09T01:07:53.903Z,30.70
2019-05-09T01:10:23.672Z,31.57
2019-05-09T01:12:54.208Z,27.73
2019-05-09T01:15:24.010Z,26.90
2019-05-09T01:17:53.615Z,33.67
2019-05-09T01:20:24.146Z,28.10
2019-05-09T01:22:54.029Z,30.63
2019-05-09T01:25:24.050Z,36.00
2019-05-09T01:27:53.865Z,33.27
2019-05-09T01:30:24.231Z,35.13
2019-05-09T01:33:13.625Z,40.03
2019-05-09T01:35:43.409Z,39.57
2019-05-09T01:38:14.277Z,33.67
2019-05-09T01:40:44.059Z,40.13
2019-05-09T01:43:13.842Z,38.80
2019-05-09T01:45:43.594Z,36.07
2019-05-09T01:48:13.966Z,37.07
2019-05-09T01:50:43.242Z,39.57
2019-05-09T01:53:16.805Z,36.07
2019-05-09T01:56:03.947Z,33.50
2019-05-09T01:58:34.517Z,63.67
2019-05-09T02:01:06.916Z,66.70
2019-05-09T02:03:35.573Z,68.73
2019-05-09T02:06:04.522Z,58.60
2019-05-09T02:08:34.557Z,40.97
2019-05-09T02:11:04.007Z,32.40
2019-05-09T02:13:33.925Z,28.30
2019-05-09T02:16:11.120Z,28.27
2019-05-09T02:18:41.505Z,26.90
2019-05-09T02:21:12.279Z,25.93
2019-05-09T02:23:40.543Z,22.67
2019-05-09T02:26:09.223Z,26.80
2019-05-09T02:28:37.868Z,23.50
2019-05-09T02:31:09.744Z,25.30
2019-05-09T02:33:38.325Z,24.67
2019-05-09T02:36:09.640Z,26.37
2019-05-09T02:38:39.215Z,26.30
2019-05-09T02:41:08.706Z,22.33
2019-05-09T02:43:38.856Z,28.27
2019-05-09T02:46:19.938Z,27.37
2019-05-09T02:48:49.694Z,26.63
2019-05-09T02:51:18.877Z,25.47
2019-05-09T02:53:50.703Z,29.93
2019-05-09T02:56:19.373Z,28.50
2019-05-09T02:59:04.801Z,32.57
2019-05-09T03:01:53.477Z,34.00
2019-05-09T03:04:22.212Z,31.27
2019-05-09T03:06:53.885Z,32.77
2019-05-09T03:09:22.532Z,30.80
2019-05-09T03:11:51.180Z,31.40
2019-05-09T03:14:19.830Z,29.57
2019-05-09T03:16:49.306Z,28.17
2019-05-09T03:19:19.674Z,30.67
2019-05-09T03:24:40.562Z,30.77
2019-05-09T03:27:10.846Z,28.93
2019-05-09T03:29:41.192Z,31.57
2019-05-09T03:32:09.842Z,33.23
2019-05-09T03:34:38.423Z,29.43
2019-05-09T03:37:09.597Z,33.13
2019-05-09T03:39:38.237Z,29.30
2019-05-09T03:42:07.854Z,29.80
2019-05-09T03:44:38.508Z,26.83
2019-05-09T03:47:12.639Z,24.07
2019-05-09T03:49:41.259Z,27.00
2019-05-09T03:52:12.352Z,23.40
2019-05-09T03:54:41.000Z,24.67
2019-05-09T03:57:12.271Z,25.97
2019-05-09T03:59:40.844Z,28.00
2019-05-09T04:02:10.309Z,21.80
2019-05-09T04:04:44.662Z,24.63
2019-05-09T04:07:13.234Z,24.83
2019-05-09T04:09:41.773Z,27.20
2019-05-09T04:12:13.257Z,25.27
2019-05-09T04:14:41.944Z,25.53
2019-05-09T04:17:11.857Z,23.17
2019-05-09T04:19:42.546Z,24.47
2019-05-09T04:22:11.130Z,25.83
2019-05-09T04:24:39.802Z,20.60
2019-05-09T04:27:13.022Z,23.13
2019-05-09T04:29:41.636Z,23.67
2019-05-09T04:32:10.347Z,16.70
2019-05-09T04:34:38.950Z,21.60
2019-05-09T04:37:08.138Z,17.90
2019-05-09T04:39:38.705Z,20.97
2019-05-09T04:42:18.345Z,15.13
2019-05-09T04:44:49.882Z,16.20
2019-05-09T04:47:18.340Z,15.57
2019-05-09T04:49:47.919Z,14.87
2019-05-09T04:52:18.042Z,16.07
2019-05-09T04:54:48.680Z,11.27
2019-05-09T04:57:17.921Z,18.43
2019-05-09T04:59:49.792Z,18.23
2019-05-09T05:02:29.364Z,14.33
2019-05-09T05:05:01.053Z,14.37
2019-05-09T05:07:29.740Z,13.70
2019-05-09T05:09:58.313Z,13.97
2019-05-09T05:12:27.777Z,11.70
2019-05-09T05:14:59.236Z,13.43
2019-05-09T05:17:30.776Z,13.00
2019-05-09T05:20:00.362Z,11.53
2019-05-09T05:22:30.623Z,10.83
2019-05-09T05:25:04.243Z,21.97
2019-05-09T05:27:32.851Z,12.23
2019-05-09T05:30:02.701Z,10.77
2019-05-09T05:32:33.371Z,10.83
2019-05-09T05:35:08.055Z,9.77
2019-05-09T05:37:38.617Z,10.80
2019-05-09T05:40:08.789Z,11.03
2019-05-09T05:42:38.863Z,12.97
2019-05-09T05:45:11.154Z,9.33
2019-05-09T05:47:41.489Z,9.17
2019-05-09T05:50:10.143Z,11.67
2019-05-09T05:52:42.129Z,10.70
2019-05-09T05:55:10.919Z,11.80
2019-05-09T05:57:41.126Z,12.73
2019-05-09T06:00:11.175Z,13.20
2019-05-09T06:02:41.469Z,14.30
2019-05-09T06:05:10.166Z,12.50
2019-05-09T06:07:38.897Z,11.37
2019-05-09T06:10:08.236Z,10.27
2019-05-09T06:12:38.720Z,13.37
2019-05-09T06:15:07.811Z,9.80
2019-05-09T06:17:37.960Z,12.23
2019-05-09T06:20:09.187Z,13.03
2019-05-09T06:22:42.465Z,10.73
2019-05-09T06:25:20.160Z,10.70
2019-05-09T06:27:48.188Z,10.47
2019-05-09T06:30:21.147Z,11.13
2019-05-09T06:32:49.962Z,9.23
2019-05-09T06:35:21.699Z,8.73
2019-05-09T06:37:52.981Z,9.70
2019-05-09T06:40:23.434Z,7.77
2019-05-09T06:42:52.553Z,9.03
2019-05-09T06:45:41.800Z,12.13
2019-05-09T06:48:13.349Z,12.47
2019-05-09T06:50:42.044Z,9.80
2019-05-09T06:53:10.811Z,12.10
2019-05-09T06:55:39.604Z,10.43
2019-05-09T06:58:31.196Z,7.47
2019-05-09T07:01:14.919Z,9.10
2019-05-09T07:03:51.254Z,9.10
2019-05-09T07:06:21.574Z,11.70
2019-05-09T07:08:54.430Z,10.77
2019-05-09T07:11:23.087Z,11.47
2019-05-09T07:13:51.754Z,17.37
2019-05-09T07:16:23.712Z,17.30
2019-05-09T07:18:57.760Z,18.57
2019-05-09T07:21:28.621Z,14.73
2019-05-09T07:23:58.277Z,14.00
2019-05-09T07:26:31.346Z,18.17
2019-05-09T07:29:00.195Z,13.70
2019-05-09T07:31:33.112Z,13.63
2019-05-09T07:34:03.476Z,17.17
2019-05-09T07:36:38.351Z,12.47
2019-05-09T07:39:08.983Z,12.13
2019-05-09T07:41:38.366Z,10.93
2019-05-09T07:44:07.767Z,11.63
2019-05-09T07:46:38.441Z,10.63
2019-05-09T07:49:08.611Z,19.13
2019-05-09T07:51:40.716Z,10.10
2019-05-09T07:54:21.259Z,9.77
2019-05-09T07:56:39.932Z,18.57
2019-05-09T07:59:08.637Z,10.67
2019-05-09T08:01:39.974Z,12.90
2019-05-09T08:04:08.602Z,13.83
2019-05-09T08:06:38.096Z,11.17
2019-05-09T08:09:08.454Z,12.17
2019-05-09T08:11:37.765Z,10.93
2019-05-09T08:14:08.352Z,12.10
2019-05-09T08:16:37.991Z,7.03
2019-05-09T08:19:07.540Z,12.20
2019-05-09T08:21:38.306Z,13.73
2019-05-09T08:24:08.053Z,8.60
2019-05-09T08:26:39.265Z,8.70
2019-05-09T08:29:09.450Z,9.57
2019-05-09T08:31:40.046Z,10.80
2019-05-09T08:34:11.193Z,9.40
2019-05-09T08:36:39.962Z,12.60
2019-05-09T08:39:09.551Z,10.70
2019-05-09T08:41:38.638Z,7.60
2019-05-09T08:44:08.269Z,6.83
2019-05-09T08:46:37.709Z,10.97
2019-05-09T08:49:08.237Z,9.90
2019-05-09T08:51:52.765Z,12.70
2019-05-09T08:54:12.315Z,9.73
2019-05-09T08:56:40.982Z,9.13
2019-05-09T08:59:12.524Z,14.50
2019-05-09T09:02:12.188Z,32.77
2019-05-09T09:04:24.498Z,14.97
2019-05-09T09:06:53.061Z,10.93
2019-05-09T09:09:21.815Z,8.83
2019-05-09T09:11:50.562Z,11.60
2019-05-09T09:14:19.287Z,8.53
2019-05-09T09:16:48.038Z,10.50
2019-05-09T09:19:17.917Z,16.67
2019-05-09T09:21:49.788Z,14.23
2019-05-09T09:24:18.436Z,35.23
2019-05-09T09:26:48.775Z,14.25
2019-05-09T09:29:17.881Z,11.48
2019-05-09T09:31:48.304Z,9.90
2019-05-09T09:34:18.150Z,12.28
2019-05-09T09:36:48.081Z,9.80
2019-05-09T09:39:18.914Z,8.15
2019-05-09T09:41:49.505Z,10.00
2019-05-09T09:44:21.969Z,7.22
2019-05-09T09:46:52.110Z,6.53
2019-05-09T09:49:23.738Z,7.95
2019-05-09T09:51:54.252Z,9.60
2019-05-09T09:54:28.105Z,7.83
2019-05-09T09:57:03.427Z,6.95
2019-05-09T09:59:48.334Z,14.07
2019-05-09T10:02:27.806Z,8.55
2019-05-09T10:04:58.784Z,8.13
2019-05-09T10:07:41.093Z,7.67
2019-05-09T10:10:48.593Z,8.03
2019-05-09T10:13:14.046Z,11.57
2019-05-09T10:15:44.380Z,9.33
2019-05-09T10:18:30.751Z,11.47
2019-05-09T10:21:10.108Z,9.88
2019-05-09T10:23:40.547Z,11.97
2019-05-09T10:26:10.663Z,11.17
2019-05-09T10:28:39.764Z,11.93
2019-05-09T10:31:08.894Z,8.90
2019-05-09T10:33:37.789Z,26.07
2019-05-09T10:36:08.465Z,11.20
2019-05-09T10:38:38.665Z,10.72
2019-05-09T10:41:10.872Z,11.95
2019-05-09T10:43:39.741Z,9.65
2019-05-09T10:46:39.036Z,17.27
2019-05-09T10:49:00.318Z,14.83
2019-05-09T10:51:29.161Z,11.45
2019-05-09T10:53:58.816Z,17.67
2019-05-09T10:56:28.875Z,15.23
2019-05-09T10:58:58.497Z,14.47
2019-05-09T11:01:29.409Z,17.30
2019-05-09T11:03:58.983Z,15.68
2019-05-09T11:06:28.811Z,20.12
2019-05-09T11:08:58.482Z,8.78
2019-05-09T11:11:29.128Z,13.25
2019-05-09T11:13:59.018Z,33.35
2019-05-09T11:16:41.727Z,10.90
2019-05-09T11:19:02.758Z,47.48
2019-05-09T11:21:39.185Z,9.50
2019-05-09T11:24:08.557Z,13.95
2019-05-09T11:26:39.853Z,8.00
2019-05-09T11:29:08.228Z,8.23
2019-05-09T11:31:38.677Z,6.92
2019-05-09T11:34:09.239Z,7.70
2019-05-09T11:36:38.319Z,11.55
2019-05-09T11:39:10.987Z,7.17
2019-05-09T11:41:48.653Z,9.93
2019-05-09T11:44:18.428Z,9.58
2019-05-09T11:46:47.700Z,6.05
2019-05-09T11:49:17.927Z,6.33
2019-05-09T11:51:48.245Z,8.05
2019-05-09T11:54:19.914Z,7.17
2019-05-09T11:56:48.646Z,7.58
2019-05-09T11:59:18.896Z,9.63
2019-05-09T12:01:48.366Z,8.68
2019-05-09T12:04:18.776Z,12.90
2019-05-09T12:06:50.285Z,12.90
2019-05-09T12:09:23.858Z,9.20
2019-05-09T12:11:52.691Z,10.53
2019-05-09T12:14:21.371Z,8.28
2019-05-09T12:16:50.023Z,5.87
2019-05-09T12:19:18.753Z,12.78
2019-05-09T12:21:48.444Z,7.72
2019-05-09T12:24:18.342Z,9.93
2019-05-09T12:26:48.180Z,7.60
2019-05-09T12:29:19.580Z,7.08
2019-05-09T12:31:48.576Z,12.40
2019-05-09T12:34:19.387Z,6.00
2019-05-09T12:36:49.416Z,11.48
2019-05-09T12:39:20.089Z,8.63
2019-05-09T12:41:49.194Z,12.00
2019-05-09T12:44:18.411Z,13.32
2019-05-09T12:46:49.886Z,8.53
2019-05-09T12:49:19.147Z,5.05
2019-05-09T12:51:47.915Z,4.72
2019-05-09T12:54:19.324Z,160.40
2019-05-09T12:56:48.689Z,11.08
2019-05-09T12:59:18.748Z,8.98
2019-05-09T13:01:50.909Z,23.43
2019-05-09T13:04:19.661Z,10.33
2019-05-09T13:06:50.966Z,10.03
2019-05-09T13:09:19.663Z,13.93
2019-05-09T13:11:48.480Z,8.17
2019-05-09T13:14:19.252Z,10.33
2019-05-09T13:16:53.368Z,10.63
2019-05-09T13:19:27.923Z,9.43
2019-05-09T13:21:58.643Z,12.93
2019-05-09T13:24:28.318Z,8.73
2019-05-09T13:26:57.153Z,11.60
2019-05-09T13:29:25.771Z,10.07
2019-05-09T13:31:54.371Z,7.67
2019-05-09T13:34:23.008Z,11.50
2019-05-09T13:36:51.589Z,18.80
2019-05-09T13:39:20.233Z,16.23
2019-05-09T13:41:48.849Z,10.00
2019-05-09T13:44:18.059Z,13.37
2019-05-09T13:46:48.872Z,15.37
2019-05-09T13:49:19.283Z,16.07
2019-05-09T13:52:00.265Z,10.93
2019-05-09T13:54:20.982Z,11.43
2019-05-09T13:56:56.734Z,9.37
2019-05-09T13:59:19.862Z,10.13
2019-05-09T14:01:48.503Z,14.80
2019-05-09T14:04:17.141Z,13.17
2019-05-09T14:06:45.714Z,14.27
2019-05-09T14:09:14.326Z,10.80
2019-05-09T14:11:42.895Z,12.43
2019-05-09T14:14:12.286Z,13.23
2019-05-09T14:16:42.429Z,12.23
2019-05-09T14:19:30.185Z,9.87
2019-05-09T14:21:41.506Z,10.40
2019-05-09T14:24:15.012Z,10.97
2019-05-09T14:26:40.496Z,11.33
2019-05-09T14:29:12.742Z,11.40
2019-05-09T14:31:39.508Z,17.20
2019-05-09T14:34:08.806Z,14.93
2019-05-09T14:36:39.198Z,11.20
2019-05-09T14:39:09.392Z,12.17
2019-05-09T14:41:39.063Z,14.00
2019-05-09T14:44:09.316Z,13.03
2019-05-09T14:46:39.141Z,11.97
2019-05-09T14:49:08.238Z,12.60
2019-05-09T14:51:38.123Z,13.30
2019-05-09T14:54:09.855Z,14.13
2019-05-09T14:56:41.803Z,16.33
2019-05-09T14:59:09.766Z,13.57
2019-05-09T15:01:43.066Z,12.77
2019-05-09T15:04:09.220Z,12.33
2019-05-09T15:06:37.757Z,10.57
2019-05-09T15:09:08.382Z,12.80
2019-05-09T15:11:40.219Z,18.77
2019-05-09T15:14:08.936Z,13.13
2019-05-09T15:16:39.208Z,13.70
2019-05-09T15:19:08.511Z,15.27
2019-05-09T15:21:38.174Z,20.10
2019-05-09T15:24:09.153Z,16.83
2019-05-09T15:26:37.706Z,12.80
2019-05-09T15:29:08.059Z,11.60
2019-05-09T15:31:39.226Z,15.03
2019-05-09T15:34:10.591Z,14.10
2019-05-09T15:36:39.164Z,13.00
2019-05-09T15:39:08.695Z,10.80
2019-05-09T15:41:38.421Z,13.43
2019-05-09T15:44:08.261Z,10.73
2019-05-09T15:46:44.539Z,14.53
2019-05-09T15:49:18.205Z,14.27
2019-05-09T15:51:47.854Z,16.30
2019-05-09T15:54:17.844Z,14.93
2019-05-09T15:56:48.387Z,14.47
2019-05-09T15:59:19.876Z,14.87
2019-05-09T16:01:49.350Z,22.53
2019-05-09T16:04:20.789Z,13.60
2019-05-09T16:06:52.489Z,11.70
2019-05-09T16:09:21.508Z,14.53
2019-05-09T16:11:50.186Z,13.77
2019-05-09T16:14:21.529Z,12.80
2019-05-09T16:16:50.164Z,13.87
2019-05-09T16:19:18.678Z,14.40
2019-05-09T16:21:50.161Z,21.80
2019-05-09T16:24:19.133Z,16.43
2019-05-09T16:26:50.968Z,19.23
2019-05-09T16:29:19.618Z,16.33
2019-05-09T16:31:48.461Z,38.67
2019-05-09T16:34:17.816Z,29.63
2019-05-09T16:36:47.990Z,21.60
2019-05-09T16:39:18.250Z,19.63
2019-05-09T16:41:48.377Z,20.70
2019-05-09T16:44:18.236Z,20.50
2019-05-09T16:46:48.484Z,19.50
2019-05-09T16:49:19.705Z,19.27
2019-05-09T16:51:48.597Z,19.60
2019-05-09T16:54:18.165Z,29.37
2019-05-09T16:56:47.053Z,28.93
2019-05-09T16:59:17.901Z,30.80
2019-05-09T17:01:49.473Z,30.00
2019-05-09T17:04:19.167Z,32.30
2019-05-09T17:06:49.496Z,36.03
2019-05-09T17:09:18.127Z,32.23
2019-05-09T17:11:49.751Z,31.80
2019-05-09T17:14:21.095Z,25.13
2019-05-09T17:16:52.796Z,28.63
2019-05-09T17:19:23.117Z,27.93
2019-05-09T17:21:53.391Z,27.77
2019-05-09T17:24:23.253Z,28.03
2019-05-09T17:26:51.895Z,24.03
2019-05-09T17:29:20.566Z,27.70
2019-05-09T17:31:49.221Z,28.93
2019-05-09T17:34:18.188Z,35.70
2019-05-09T17:36:46.929Z,27.90
2019-05-09T17:39:15.571Z,27.30
2019-05-09T17:41:44.224Z,29.13
2019-05-09T17:44:12.869Z,24.43
2019-05-09T17:46:44.717Z,20.10
2019-05-09T17:49:13.483Z,20.70
2019-05-09T17:51:42.001Z,16.70
2019-05-09T17:54:10.667Z,31.60
2019-05-09T17:56:39.240Z,22.73
2019-05-09T17:59:08.491Z,29.70
2019-05-09T18:01:37.374Z,28.97
2019-05-09T18:04:08.382Z,22.77
2019-05-09T18:06:37.922Z,23.50
2019-05-09T18:09:08.574Z,25.87
2019-05-09T18:11:37.842Z,30.57
2019-05-09T18:14:09.565Z,27.10
2019-05-09T18:16:38.947Z,26.40
2019-05-09T18:19:08.581Z,29.53
2019-05-09T18:21:50.291Z,30.27
2019-05-09T18:24:09.034Z,35.60
2019-05-09T18:26:40.291Z,30.73
2019-05-09T18:29:08.882Z,33.37
2019-05-09T18:31:45.237Z,31.17
2019-05-09T18:34:19.965Z,25.80
2019-05-09T18:36:48.647Z,28.70
2019-05-09T18:39:18.614Z,29.80
2019-05-09T18:41:48.377Z,32.20
2019-05-09T18:44:19.629Z,36.40
2019-05-09T18:46:48.345Z,53.30
2019-05-09T18:49:16.985Z,37.27
2019-05-09T18:51:45.677Z,35.83
2019-05-09T18:54:14.315Z,35.70
2019-05-09T18:56:42.828Z,36.17
2019-05-09T18:59:11.404Z,29.93
2019-05-09T19:01:40.065Z,32.60
2019-05-09T19:04:11.159Z,34.13
2019-05-09T19:06:40.069Z,32.37
2019-05-09T19:09:08.779Z,38.43
2019-05-09T19:11:37.515Z,33.50
2019-05-09T19:14:07.350Z,36.73
2019-05-09T19:16:40.588Z,29.73
2019-05-09T19:19:19.939Z,27.97
2019-05-09T19:21:50.223Z,28.83
2019-05-09T19:24:18.815Z,29.03
2019-05-09T19:26:47.467Z,27.63
2019-05-09T19:29:16.045Z,31.77
2019-05-09T19:31:44.697Z,26.93
2019-05-09T19:34:16.267Z,30.17
2019-05-09T19:36:44.921Z,28.23
2019-05-09T19:39:13.593Z,26.40
2019-05-09T19:41:45.082Z,28.90
2019-05-09T19:44:13.736Z,28.10
2019-05-09T19:46:42.399Z,29.50
2019-05-09T19:49:11.091Z,27.53
2019-05-09T19:51:42.574Z,29.83
2019-05-09T19:54:11.197Z,27.73
2019-05-09T19:56:39.844Z,34.80
2019-05-09T19:59:08.718Z,31.90
2019-05-09T20:01:37.463Z,29.43
2019-05-09T20:04:06.110Z,29.17
2019-05-09T20:06:34.688Z,30.47
2019-05-09T20:09:05.025Z,29.77
2019-05-09T20:11:35.302Z,29.17
2019-05-09T20:14:05.522Z,31.87
2019-05-09T20:16:38.821Z,32.90
2019-05-09T20:19:07.471Z,28.43
2019-05-09T20:21:36.160Z,28.30
2019-05-09T20:24:05.204Z,25.77
2019-05-09T20:26:33.881Z,29.90
2019-05-09T20:29:05.239Z,28.83
2019-05-09T20:31:33.948Z,26.70
2019-05-09T20:34:02.674Z,31.23
2019-05-09T20:36:31.366Z,24.17
2019-05-09T20:39:00.202Z,29.83
2019-05-09T20:41:29.039Z,27.07
2019-05-09T20:43:57.877Z,29.03
2019-05-09T20:46:26.727Z,27.20
2019-05-09T20:48:55.559Z,29.63
2019-05-09T20:51:24.390Z,25.97
2019-05-09T20:53:53.224Z,29.00
2019-05-09T20:56:22.059Z,31.47
2019-05-09T20:58:50.829Z,27.27
2019-05-09T21:01:19.653Z,26.57
2019-05-09T21:03:59.437Z,26.93
2019-05-09T21:06:18.953Z,27.50
2019-05-09T21:08:50.509Z,26.17
2019-05-09T21:11:19.311Z,27.47
2019-05-09T21:13:48.951Z,29.57
2019-05-09T21:16:17.902Z,29.27
2019-05-09T21:18:49.264Z,28.57
2019-05-09T21:21:18.140Z,30.17
2019-05-09T21:23:46.899Z,26.00
2019-05-09T21:26:15.676Z,30.00
2019-05-09T21:28:44.562Z,28.13
2019-05-09T21:31:13.322Z,27.57
2019-05-09T21:33:42.194Z,28.57
2019-05-09T21:36:10.848Z,30.00
2019-05-09T21:38:39.559Z,27.03
2019-05-09T21:41:08.217Z,31.17
2019-05-09T21:43:36.859Z,32.87
2019-05-09T21:46:05.559Z,29.80
2019-05-09T21:48:34.202Z,29.67
2019-05-09T21:51:02.883Z,33.73
2019-05-09T21:53:40.593Z,34.57
2019-05-09T21:56:01.753Z,33.43
2019-05-09T21:58:30.406Z,38.77
2019-05-09T22:01:00.454Z,40.80
2019-05-09T22:03:29.144Z,54.97
2019-05-09T22:05:57.801Z,46.07
2019-05-09T22:08:26.485Z,47.33
2019-05-09T22:10:55.133Z,44.40
2019-05-09T22:13:23.786Z,35.87
2019-05-09T22:15:53.861Z,34.53
2019-05-09T22:18:22.443Z,37.60
2019-05-09T22:20:51.023Z,36.80
2019-05-09T22:23:19.646Z,45.13
2019-05-09T22:25:48.224Z,47.63
2019-05-09T22:28:16.872Z,46.90
2019-05-09T22:30:45.396Z,47.17
2019-05-09T22:33:14.969Z,51.60
2019-05-09T22:35:43.572Z,51.53
2019-05-09T22:38:12.223Z,47.57
2019-05-09T22:40:44.994Z,45.77
2019-05-09T22:43:13.654Z,43.17
2019-05-09T22:45:42.408Z,41.10
2019-05-09T22:48:12.304Z,41.43
2019-05-09T22:50:40.940Z,44.77
2019-05-09T22:53:09.596Z,40.77
2019-05-09T22:55:39.548Z,43.37
2019-05-09T22:58:08.203Z,7.23
2019-05-09T23:00:36.842Z,0.67
2019-05-09T23:03:05.529Z,1.53
2019-05-09T23:05:34.184Z,1.43
2019-05-09T23:08:02.818Z,2.47
2019-05-09T23:10:31.497Z,0.80
2019-05-09T23:13:00.082Z,1.47
2019-05-09T23:15:28.692Z,1.00
2019-05-09T23:17:58.575Z,4.27
2019-05-09T23:20:47.164Z,1.07
2019-05-09T23:23:23.203Z,2.33
2019-05-09T23:25:51.861Z,4.30
2019-05-09T23:28:22.819Z,1.07
2019-05-09T23:30:53.109Z,1.00
2019-05-09T23:33:22.459Z,0.40
2019-05-09T23:35:51.072Z,2.70
2019-05-09T23:38:19.642Z,2.40
2019-05-09T23:40:48.259Z,1.40
2019-05-09T23:43:16.839Z,3.63
2019-05-09T23:45:46.894Z,1.00
2019-05-09T23:48:15.512Z,0.77
2019-05-09T23:50:44.080Z,0.80
2019-05-09T23:53:12.968Z,1.00
2019-05-09T23:56:00.611Z,1.57
2019-05-09T23:58:46.905Z,1.47
